sensor_id;sensor_type;location;lat;lon;timestamp;P1;durP1;ratioP1;P2;durP2;ratioP2
72517;SDS011;60540;51.178;6.738;2024-01-07T00:01:58;16.50;;;7.03;;
72517;SDS011;60540;51.178;6.738;2024-01-07T00:04:42;15.70;;;6.50;;
72517;SDS011;60540;51.178;6.738;2024-01-07T00:07:27;15.38;;;7.05;;
72517;SDS011;60540;51.178;6.738;2024-01-07T00:10:11;17.00;;;6.80;;
72517;SDS011;60540;51.178;6.738;2024-01-07T00:12:55;16.55;;;6.53;;
72517;SDS011;60540;51.178;6.738;2024-01-07T00:15:39;14.15;;;6.05;;
72517;SDS011;60540;51.178;6.738;2024-01-07T00:18:23;13.60;;;6.50;;
72517;SDS011;60540;51.178;6.738;2024-01-07T00:21:07;14.63;;;7.10;;
72517;SDS011;60540;51.178;6.738;2024-01-07T00:23:51;17.02;;;6.60;;
72517;SDS011;60540;51.178;6.738;2024-01-07T00:26:36;16.83;;;7.88;;
72517;SDS011;60540;51.178;6.738;2024-01-07T00:29:20;17.10;;;6.63;;
72517;SDS011;60540;51.178;6.738;2024-01-07T00:32:04;15.43;;;7.32;;
72517;SDS011;60540;51.178;6.738;2024-01-07T00:34:48;14.88;;;6.75;;
72517;SDS011;60540;51.178;6.738;2024-01-07T00:37:33;15.95;;;7.13;;
72517;SDS011;60540;51.178;6.738;2024-01-07T00:40:19;17.35;;;8.27;;
72517;SDS011;60540;51.178;6.738;2024-01-07T00:43:03;15.40;;;7.05;;
72517;SDS011;60540;51.178;6.738;2024-01-07T00:45:47;17.52;;;8.35;;
72517;SDS011;60540;51.178;6.738;2024-01-07T00:48:31;21.45;;;9.52;;
72517;SDS011;60540;51.178;6.738;2024-01-07T00:51:16;17.73;;;8.13;;
72517;SDS011;60540;51.178;6.738;2024-01-07T00:54:00;18.50;;;9.38;;
72517;SDS011;60540;51.178;6.738;2024-01-07T00:56:45;19.45;;;8.90;;
72517;SDS011;60540;51.178;6.738;2024-01-07T00:59:29;22.15;;;9.07;;
72517;SDS011;60540;51.178;6.738;2024-01-07T01:02:14;22.00;;;9.90;;
72517;SDS011;60540;51.178;6.738;2024-01-07T01:04:58;19.92;;;8.85;;
72517;SDS011;60540;51.178;6.738;2024-01-07T01:07:42;21.60;;;8.90;;
72517;SDS011;60540;51.178;6.738;2024-01-07T01:10:27;20.45;;;9.25;;
72517;SDS011;60540;51.178;6.738;2024-01-07T01:13:11;19.20;;;7.35;;
72517;SDS011;60540;51.178;6.738;2024-01-07T01:15:55;15.93;;;7.18;;
72517;SDS011;60540;51.178;6.738;2024-01-07T01:18:40;17.10;;;7.05;;
72517;SDS011;60540;51.178;6.738;2024-01-07T01:21:24;17.90;;;7.38;;
72517;SDS011;60540;51.178;6.738;2024-01-07T01:24:08;15.45;;;7.72;;
72517;SDS011;60540;51.178;6.738;2024-01-07T01:26:52;14.80;;;7.53;;
72517;SDS011;60540;51.178;6.738;2024-01-07T01:29:36;15.63;;;7.57;;
72517;SDS011;60540;51.178;6.738;2024-01-07T01:32:20;17.15;;;8.35;;
72517;SDS011;60540;51.178;6.738;2024-01-07T01:35:05;15.23;;;7.78;;
72517;SDS011;60540;51.178;6.738;2024-01-07T01:37:50;17.42;;;9.23;;
72517;SDS011;60540;51.178;6.738;2024-01-07T01:40:34;20.60;;;8.75;;
72517;SDS011;60540;51.178;6.738;2024-01-07T01:43:24;18.55;;;9.15;;
72517;SDS011;60540;51.178;6.738;2024-01-07T01:46:09;18.27;;;8.07;;
72517;SDS011;60540;51.178;6.738;2024-01-07T01:48:53;16.00;;;8.50;;
72517;SDS011;60540;51.178;6.738;2024-01-07T01:51:38;18.23;;;8.68;;
72517;SDS011;60540;51.178;6.738;2024-01-07T01:54:23;18.67;;;8.63;;
72517;SDS011;60540;51.178;6.738;2024-01-07T01:57:08;17.95;;;8.30;;
72517;SDS011;60540;51.178;6.738;2024-01-07T01:59:53;16.15;;;8.27;;
72517;SDS011;60540;51.178;6.738;2024-01-07T02:02:37;17.88;;;9.57;;
72517;SDS011;60540;51.178;6.738;2024-01-07T02:05:21;16.13;;;8.18;;
72517;SDS011;60540;51.178;6.738;2024-01-07T02:08:06;15.32;;;7.70;;
72517;SDS011;60540;51.178;6.738;2024-01-07T02:10:51;13.68;;;6.30;;
72517;SDS011;60540;51.178;6.738;2024-01-07T02:13:35;11.43;;;6.32;;
72517;SDS011;60540;51.178;6.738;2024-01-07T02:16:20;16.92;;;6.70;;
72517;SDS011;60540;51.178;6.738;2024-01-07T02:19:04;15.35;;;6.25;;
72517;SDS011;60540;51.178;6.738;2024-01-07T02:21:51;13.82;;;6.65;;
72517;SDS011;60540;51.178;6.738;2024-01-07T02:24:36;14.38;;;5.65;;
72517;SDS011;60540;51.178;6.738;2024-01-07T02:27:20;14.82;;;6.97;;
72517;SDS011;60540;51.178;6.738;2024-01-07T02:30:05;12.75;;;6.38;;
72517;SDS011;60540;51.178;6.738;2024-01-07T02:32:49;15.80;;;6.78;;
72517;SDS011;60540;51.178;6.738;2024-01-07T02:35:34;14.18;;;6.90;;
72517;SDS011;60540;51.178;6.738;2024-01-07T02:38:18;13.05;;;7.60;;
72517;SDS011;60540;51.178;6.738;2024-01-07T02:41:02;15.02;;;6.57;;
72517;SDS011;60540;51.178;6.738;2024-01-07T02:43:46;16.65;;;7.68;;
72517;SDS011;60540;51.178;6.738;2024-01-07T02:46:30;17.02;;;7.28;;
72517;SDS011;60540;51.178;6.738;2024-01-07T02:49:15;14.15;;;6.80;;
72517;SDS011;60540;51.178;6.738;2024-01-07T02:51:59;15.27;;;7.60;;
72517;SDS011;60540;51.178;6.738;2024-01-07T02:54:43;14.45;;;6.63;;
72517;SDS011;60540;51.178;6.738;2024-01-07T02:57:28;15.65;;;7.35;;
72517;SDS011;60540;51.178;6.738;2024-01-07T03:00:12;13.20;;;6.50;;
72517;SDS011;60540;51.178;6.738;2024-01-07T03:02:57;15.50;;;6.97;;
72517;SDS011;60540;51.178;6.738;2024-01-07T03:05:42;13.88;;;7.57;;
72517;SDS011;60540;51.178;6.738;2024-01-07T03:08:26;17.15;;;7.20;;
72517;SDS011;60540;51.178;6.738;2024-01-07T03:11:11;12.57;;;6.22;;
72517;SDS011;60540;51.178;6.738;2024-01-07T03:13:55;14.68;;;7.28;;
72517;SDS011;60540;51.178;6.738;2024-01-07T03:16:40;14.23;;;7.57;;
72517;SDS011;60540;51.178;6.738;2024-01-07T03:19:24;19.55;;;7.82;;
72517;SDS011;60540;51.178;6.738;2024-01-07T03:22:08;15.32;;;6.97;;
72517;SDS011;60540;51.178;6.738;2024-01-07T03:24:53;14.90;;;6.85;;
72517;SDS011;60540;51.178;6.738;2024-01-07T03:27:37;13.07;;;6.53;;
72517;SDS011;60540;51.178;6.738;2024-01-07T03:30:22;17.00;;;6.95;;
72517;SDS011;60540;51.178;6.738;2024-01-07T03:33:06;11.98;;;6.63;;
72517;SDS011;60540;51.178;6.738;2024-01-07T03:35:51;14.02;;;7.20;;
72517;SDS011;60540;51.178;6.738;2024-01-07T03:38:35;12.85;;;6.53;;
72517;SDS011;60540;51.178;6.738;2024-01-07T03:41:20;15.68;;;6.57;;
72517;SDS011;60540;51.178;6.738;2024-01-07T03:44:04;14.52;;;7.25;;
72517;SDS011;60540;51.178;6.738;2024-01-07T03:46:49;18.38;;;8.25;;
72517;SDS011;60540;51.178;6.738;2024-01-07T03:49:35;14.77;;;7.53;;
72517;SDS011;60540;51.178;6.738;2024-01-07T03:52:20;16.13;;;8.15;;
72517;SDS011;60540;51.178;6.738;2024-01-07T03:55:05;20.10;;;9.50;;
72517;SDS011;60540;51.178;6.738;2024-01-07T03:57:50;15.90;;;7.32;;
72517;SDS011;60540;51.178;6.738;2024-01-07T04:00:34;14.45;;;7.25;;
72517;SDS011;60540;51.178;6.738;2024-01-07T04:03:18;14.02;;;6.88;;
72517;SDS011;60540;51.178;6.738;2024-01-07T04:06:06;13.23;;;6.88;;
72517;SDS011;60540;51.178;6.738;2024-01-07T04:08:51;14.85;;;7.03;;
72517;SDS011;60540;51.178;6.738;2024-01-07T04:11:41;13.82;;;5.88;;
72517;SDS011;60540;51.178;6.738;2024-01-07T04:14:27;12.65;;;6.15;;
72517;SDS011;60540;51.178;6.738;2024-01-07T04:17:11;13.85;;;6.32;;
72517;SDS011;60540;51.178;6.738;2024-01-07T04:19:56;14.35;;;6.50;;
72517;SDS011;60540;51.178;6.738;2024-01-07T04:22:40;13.57;;;7.43;;
72517;SDS011;60540;51.178;6.738;2024-01-07T04:25:24;14.02;;;6.47;;
72517;SDS011;60540;51.178;6.738;2024-01-07T04:28:08;13.02;;;7.72;;
72517;SDS011;60540;51.178;6.738;2024-01-07T04:36:21;14.85;;;5.80;;
72517;SDS011;60540;51.178;6.738;2024-01-07T04:39:05;15.35;;;6.47;;
72517;SDS011;60540;51.178;6.738;2024-01-07T04:41:50;15.20;;;7.38;;
72517;SDS011;60540;51.178;6.738;2024-01-07T04:44:34;15.82;;;6.90;;
72517;SDS011;60540;51.178;6.738;2024-01-07T04:47:28;17.67;;;8.25;;
72517;SDS011;60540;51.178;6.738;2024-01-07T04:50:19;16.25;;;7.35;;
72517;SDS011;60540;51.178;6.738;2024-01-07T04:53:04;15.98;;;7.85;;
72517;SDS011;60540;51.178;6.738;2024-01-07T04:55:48;14.70;;;6.85;;
72517;SDS011;60540;51.178;6.738;2024-01-07T04:58:32;12.52;;;7.25;;
72517;SDS011;60540;51.178;6.738;2024-01-07T05:01:17;16.38;;;6.72;;
72517;SDS011;60540;51.178;6.738;2024-01-07T05:04:02;13.23;;;7.38;;
72517;SDS011;60540;51.178;6.738;2024-01-07T05:06:46;16.15;;;7.18;;
72517;SDS011;60540;51.178;6.738;2024-01-07T05:09:31;12.73;;;7.22;;
72517;SDS011;60540;51.178;6.738;2024-01-07T05:12:15;16.25;;;7.90;;
72517;SDS011;60540;51.178;6.738;2024-01-07T05:15:00;14.70;;;7.50;;
72517;SDS011;60540;51.178;6.738;2024-01-07T05:17:44;15.10;;;7.50;;
72517;SDS011;60540;51.178;6.738;2024-01-07T05:20:29;13.18;;;6.70;;
72517;SDS011;60540;51.178;6.738;2024-01-07T05:23:13;13.20;;;6.78;;
72517;SDS011;60540;51.178;6.738;2024-01-07T05:25:59;14.15;;;7.25;;
72517;SDS011;60540;51.178;6.738;2024-01-07T05:28:44;13.80;;;7.07;;
72517;SDS011;60540;51.178;6.738;2024-01-07T05:31:29;14.68;;;7.38;;
72517;SDS011;60540;51.178;6.738;2024-01-07T05:34:13;12.77;;;7.28;;
72517;SDS011;60540;51.178;6.738;2024-01-07T05:36:57;16.65;;;7.90;;
72517;SDS011;60540;51.178;6.738;2024-01-07T05:39:41;11.95;;;7.63;;
72517;SDS011;60540;51.178;6.738;2024-01-07T05:42:26;12.18;;;6.78;;
72517;SDS011;60540;51.178;6.738;2024-01-07T05:45:10;13.05;;;7.40;;
72517;SDS011;60540;51.178;6.738;2024-01-07T05:47:54;13.63;;;7.22;;
72517;SDS011;60540;51.178;6.738;2024-01-07T05:50:38;14.63;;;7.00;;
72517;SDS011;60540;51.178;6.738;2024-01-07T05:53:22;10.35;;;6.30;;
72517;SDS011;60540;51.178;6.738;2024-01-07T05:56:07;15.65;;;7.13;;
72517;SDS011;60540;51.178;6.738;2024-01-07T05:58:52;12.98;;;6.80;;
72517;SDS011;60540;51.178;6.738;2024-01-07T06:01:36;15.07;;;7.68;;
72517;SDS011;60540;51.178;6.738;2024-01-07T06:04:20;15.07;;;7.28;;
72517;SDS011;60540;51.178;6.738;2024-01-07T06:07:05;13.82;;;7.45;;
72517;SDS011;60540;51.178;6.738;2024-01-07T06:12:34;14.52;;;7.60;;
72517;SDS011;60540;51.178;6.738;2024-01-07T06:15:19;13.38;;;6.53;;
72517;SDS011;60540;51.178;6.738;2024-01-07T06:18:03;12.50;;;6.55;;
72517;SDS011;60540;51.178;6.738;2024-01-07T06:20:48;13.50;;;6.50;;
72517;SDS011;60540;51.178;6.738;2024-01-07T06:23:32;12.50;;;6.88;;
72517;SDS011;60540;51.178;6.738;2024-01-07T06:26:17;13.18;;;6.95;;
72517;SDS011;60540;51.178;6.738;2024-01-07T06:29:01;16.70;;;8.45;;
72517;SDS011;60540;51.178;6.738;2024-01-07T06:31:46;16.10;;;6.55;;
72517;SDS011;60540;51.178;6.738;2024-01-07T06:34:30;16.27;;;7.63;;
72517;SDS011;60540;51.178;6.738;2024-01-07T06:37:15;16.45;;;7.70;;
72517;SDS011;60540;51.178;6.738;2024-01-07T06:39:59;16.95;;;8.02;;
72517;SDS011;60540;51.178;6.738;2024-01-07T06:42:44;14.27;;;7.43;;
72517;SDS011;60540;51.178;6.738;2024-01-07T06:45:28;17.38;;;7.13;;
72517;SDS011;60540;51.178;6.738;2024-01-07T06:48:12;15.25;;;7.35;;
72517;SDS011;60540;51.178;6.738;2024-01-07T06:50:57;16.65;;;7.57;;
72517;SDS011;60540;51.178;6.738;2024-01-07T06:53:41;14.40;;;6.43;;
72517;SDS011;60540;51.178;6.738;2024-01-07T06:56:25;16.67;;;8.45;;
72517;SDS011;60540;51.178;6.738;2024-01-07T06:59:10;13.05;;;6.95;;
72517;SDS011;60540;51.178;6.738;2024-01-07T07:01:54;21.45;;;8.23;;
72517;SDS011;60540;51.178;6.738;2024-01-07T07:04:40;15.63;;;7.03;;
72517;SDS011;60540;51.178;6.738;2024-01-07T07:07:24;14.40;;;7.00;;
72517;SDS011;60540;51.178;6.738;2024-01-07T07:10:09;15.70;;;7.93;;
72517;SDS011;60540;51.178;6.738;2024-01-07T07:12:53;15.82;;;7.43;;
72517;SDS011;60540;51.178;6.738;2024-01-07T07:15:37;15.15;;;6.72;;
72517;SDS011;60540;51.178;6.738;2024-01-07T07:18:22;15.80;;;7.38;;
72517;SDS011;60540;51.178;6.738;2024-01-07T07:21:06;15.52;;;8.45;;
72517;SDS011;60540;51.178;6.738;2024-01-07T07:23:50;15.27;;;7.88;;
72517;SDS011;60540;51.178;6.738;2024-01-07T07:26:34;15.63;;;7.22;;
72517;SDS011;60540;51.178;6.738;2024-01-07T07:29:19;15.80;;;8.27;;
72517;SDS011;60540;51.178;6.738;2024-01-07T07:32:04;17.58;;;8.70;;
72517;SDS011;60540;51.178;6.738;2024-01-07T07:34:48;14.50;;;7.18;;
72517;SDS011;60540;51.178;6.738;2024-01-07T07:37:33;17.52;;;7.97;;
72517;SDS011;60540;51.178;6.738;2024-01-07T07:40:17;13.75;;;8.18;;
72517;SDS011;60540;51.178;6.738;2024-01-07T07:43:02;17.08;;;8.38;;
72517;SDS011;60540;51.178;6.738;2024-01-07T07:45:47;16.30;;;8.80;;
72517;SDS011;60540;51.178;6.738;2024-01-07T07:48:31;16.45;;;8.02;;
72517;SDS011;60540;51.178;6.738;2024-01-07T07:51:15;15.60;;;9.00;;
72517;SDS011;60540;51.178;6.738;2024-01-07T07:54:00;19.67;;;8.50;;
72517;SDS011;60540;51.178;6.738;2024-01-07T07:56:44;16.45;;;8.18;;
72517;SDS011;60540;51.178;6.738;2024-01-07T07:59:29;18.50;;;9.68;;
72517;SDS011;60540;51.178;6.738;2024-01-07T08:02:13;15.90;;;8.02;;
72517;SDS011;60540;51.178;6.738;2024-01-07T08:04:57;19.05;;;8.90;;
72517;SDS011;60540;51.178;6.738;2024-01-07T08:07:41;14.23;;;8.23;;
72517;SDS011;60540;51.178;6.738;2024-01-07T08:10:26;18.42;;;8.63;;
72517;SDS011;60540;51.178;6.738;2024-01-07T08:13:13;17.92;;;8.35;;
72517;SDS011;60540;51.178;6.738;2024-01-07T08:15:58;23.30;;;9.57;;
72517;SDS011;60540;51.178;6.738;2024-01-07T08:18:42;19.98;;;9.23;;
72517;SDS011;60540;51.178;6.738;2024-01-07T08:21:26;18.55;;;9.25;;
72517;SDS011;60540;51.178;6.738;2024-01-07T08:24:11;16.65;;;8.93;;
72517;SDS011;60540;51.178;6.738;2024-01-07T08:26:55;20.38;;;9.02;;
72517;SDS011;60540;51.178;6.738;2024-01-07T08:29:42;18.33;;;8.70;;
72517;SDS011;60540;51.178;6.738;2024-01-07T08:32:27;19.38;;;9.23;;
72517;SDS011;60540;51.178;6.738;2024-01-07T08:35:11;18.77;;;9.10;;
72517;SDS011;60540;51.178;6.738;2024-01-07T08:37:56;18.63;;;9.27;;
72517;SDS011;60540;51.178;6.738;2024-01-07T08:40:40;20.80;;;9.60;;
72517;SDS011;60540;51.178;6.738;2024-01-07T08:43:25;19.42;;;9.05;;
72517;SDS011;60540;51.178;6.738;2024-01-07T08:46:09;19.92;;;8.77;;
72517;SDS011;60540;51.178;6.738;2024-01-07T08:48:53;19.38;;;8.75;;
72517;SDS011;60540;51.178;6.738;2024-01-07T08:51:37;16.33;;;7.95;;
72517;SDS011;60540;51.178;6.738;2024-01-07T08:54:22;14.98;;;7.38;;
72517;SDS011;60540;51.178;6.738;2024-01-07T08:57:06;16.67;;;7.30;;
72517;SDS011;60540;51.178;6.738;2024-01-07T08:59:52;14.38;;;7.00;;
72517;SDS011;60540;51.178;6.738;2024-01-07T09:02:36;16.45;;;8.00;;
72517;SDS011;60540;51.178;6.738;2024-01-07T09:05:21;11.98;;;6.22;;
72517;SDS011;60540;51.178;6.738;2024-01-07T09:08:05;13.90;;;6.80;;
72517;SDS011;60540;51.178;6.738;2024-01-07T09:10:50;13.07;;;7.50;;
72517;SDS011;60540;51.178;6.738;2024-01-07T09:13:34;13.25;;;7.05;;
72517;SDS011;60540;51.178;6.738;2024-01-07T09:16:19;11.52;;;6.30;;
72517;SDS011;60540;51.178;6.738;2024-01-07T09:19:03;10.52;;;6.43;;
72517;SDS011;60540;51.178;6.738;2024-01-07T09:21:47;13.48;;;6.65;;
72517;SDS011;60540;51.178;6.738;2024-01-07T09:24:31;12.50;;;6.95;;
72517;SDS011;60540;51.178;6.738;2024-01-07T09:27:16;11.10;;;6.38;;
72517;SDS011;60540;51.178;6.738;2024-01-07T09:30:00;14.68;;;7.10;;
72517;SDS011;60540;51.178;6.738;2024-01-07T09:32:45;12.55;;;6.45;;
72517;SDS011;60540;51.178;6.738;2024-01-07T09:35:29;14.60;;;6.88;;
72517;SDS011;60540;51.178;6.738;2024-01-07T09:38:14;10.68;;;5.80;;
72517;SDS011;60540;51.178;6.738;2024-01-07T09:40:58;11.15;;;5.90;;
72517;SDS011;60540;51.178;6.738;2024-01-07T09:43:42;12.50;;;6.28;;
72517;SDS011;60540;51.178;6.738;2024-01-07T09:46:27;11.73;;;6.43;;
72517;SDS011;60540;51.178;6.738;2024-01-07T09:49:14;11.75;;;6.22;;
72517;SDS011;60540;51.178;6.738;2024-01-07T09:51:59;13.63;;;6.75;;
72517;SDS011;60540;51.178;6.738;2024-01-07T09:54:50;11.15;;;6.65;;
72517;SDS011;60540;51.178;6.738;2024-01-07T09:57:36;8.77;;;5.00;;
72517;SDS011;60540;51.178;6.738;2024-01-07T10:00:22;11.98;;;6.40;;
72517;SDS011;60540;51.178;6.738;2024-01-07T10:03:06;10.65;;;6.50;;
72517;SDS011;60540;51.178;6.738;2024-01-07T10:05:51;10.75;;;6.43;;
72517;SDS011;60540;51.178;6.738;2024-01-07T10:08:35;12.48;;;6.38;;
72517;SDS011;60540;51.178;6.738;2024-01-07T10:11:21;11.05;;;7.00;;
72517;SDS011;60540;51.178;6.738;2024-01-07T10:14:05;11.27;;;6.22;;
72517;SDS011;60540;51.178;6.738;2024-01-07T10:16:49;12.38;;;6.43;;
72517;SDS011;60540;51.178;6.738;2024-01-07T10:19:34;11.05;;;5.25;;
72517;SDS011;60540;51.178;6.738;2024-01-07T10:27:48;11.65;;;5.70;;
72517;SDS011;60540;51.178;6.738;2024-01-07T10:30:33;11.57;;;6.22;;
72517;SDS011;60540;51.178;6.738;2024-01-07T10:33:18;13.65;;;6.47;;
72517;SDS011;60540;51.178;6.738;2024-01-07T10:36:07;11.35;;;5.90;;
72517;SDS011;60540;51.178;6.738;2024-01-07T10:38:53;11.60;;;5.78;;
72517;SDS011;60540;51.178;6.738;2024-01-07T10:44:24;11.45;;;5.60;;
72517;SDS011;60540;51.178;6.738;2024-01-07T10:47:09;9.85;;;6.18;;
72517;SDS011;60540;51.178;6.738;2024-01-07T10:49:54;11.90;;;6.93;;
72517;SDS011;60540;51.178;6.738;2024-01-07T10:52:40;12.23;;;6.15;;
72517;SDS011;60540;51.178;6.738;2024-01-07T10:55:26;11.05;;;6.38;;
72517;SDS011;60540;51.178;6.738;2024-01-07T10:58:13;9.27;;;5.72;;
72517;SDS011;60540;51.178;6.738;2024-01-07T11:00:58;9.95;;;5.53;;
72517;SDS011;60540;51.178;6.738;2024-01-07T11:09:40;10.77;;;5.70;;
72517;SDS011;60540;51.178;6.738;2024-01-07T11:12:31;11.57;;;5.30;;
72517;SDS011;60540;51.178;6.738;2024-01-07T11:15:32;8.88;;;5.65;;
72517;SDS011;60540;51.178;6.738;2024-01-07T11:18:32;10.70;;;6.00;;
72517;SDS011;60540;51.178;6.738;2024-01-07T11:24:09;8.95;;;5.50;;
72517;SDS011;60540;51.178;6.738;2024-01-07T11:26:53;7.88;;;4.53;;
72517;SDS011;60540;51.178;6.738;2024-01-07T11:29:37;10.52;;;5.60;;
72517;SDS011;60540;51.178;6.738;2024-01-07T11:32:28;10.10;;;4.57;;
72517;SDS011;60540;51.178;6.738;2024-01-07T11:35:13;9.77;;;5.10;;
72517;SDS011;60540;51.178;6.738;2024-01-07T11:37:57;9.30;;;5.13;;
72517;SDS011;60540;51.178;6.738;2024-01-07T11:40:41;9.10;;;4.18;;
72517;SDS011;60540;51.178;6.738;2024-01-07T11:43:26;9.00;;;4.78;;
72517;SDS011;60540;51.178;6.738;2024-01-07T11:46:10;6.63;;;4.20;;
72517;SDS011;60540;51.178;6.738;2024-01-07T11:48:55;7.75;;;4.60;;
72517;SDS011;60540;51.178;6.738;2024-01-07T11:51:44;8.75;;;3.95;;
72517;SDS011;60540;51.178;6.738;2024-01-07T11:54:29;6.80;;;4.10;;
72517;SDS011;60540;51.178;6.738;2024-01-07T11:57:14;7.95;;;3.90;;
72517;SDS011;60540;51.178;6.738;2024-01-07T11:59:58;7.15;;;3.65;;
72517;SDS011;60540;51.178;6.738;2024-01-07T12:02:43;9.73;;;4.32;;
72517;SDS011;60540;51.178;6.738;2024-01-07T12:05:28;8.10;;;4.00;;
72517;SDS011;60540;51.178;6.738;2024-01-07T12:08:12;7.35;;;3.45;;
72517;SDS011;60540;51.178;6.738;2024-01-07T12:10:56;9.70;;;4.45;;
72517;SDS011;60540;51.178;6.738;2024-01-07T12:13:41;7.35;;;3.72;;
72517;SDS011;60540;51.178;6.738;2024-01-07T12:16:26;7.88;;;3.92;;
72517;SDS011;60540;51.178;6.738;2024-01-07T12:19:11;6.75;;;3.90;;
72517;SDS011;60540;51.178;6.738;2024-01-07T12:22:29;7.28;;;3.63;;
72517;SDS011;60540;51.178;6.738;2024-01-07T12:25:06;7.10;;;3.22;;
72517;SDS011;60540;51.178;6.738;2024-01-07T12:27:51;6.55;;;3.60;;
72517;SDS011;60540;51.178;6.738;2024-01-07T12:30:38;6.53;;;3.38;;
72517;SDS011;60540;51.178;6.738;2024-01-07T12:33:22;5.85;;;3.45;;
72517;SDS011;60540;51.178;6.738;2024-01-07T12:36:07;6.38;;;2.85;;
72517;SDS011;60540;51.178;6.738;2024-01-07T12:38:51;5.85;;;2.90;;
72517;SDS011;60540;51.178;6.738;2024-01-07T12:41:37;6.03;;;2.75;;
72517;SDS011;60540;51.178;6.738;2024-01-07T12:44:21;7.43;;;3.25;;
72517;SDS011;60540;51.178;6.738;2024-01-07T12:47:06;6.45;;;3.05;;
72517;SDS011;60540;51.178;6.738;2024-01-07T12:49:50;4.88;;;2.90;;
72517;SDS011;60540;51.178;6.738;2024-01-07T12:52:35;5.32;;;3.58;;
72517;SDS011;60540;51.178;6.738;2024-01-07T12:55:20;5.78;;;3.45;;
72517;SDS011;60540;51.178;6.738;2024-01-07T12:58:04;6.20;;;3.35;;
72517;SDS011;60540;51.178;6.738;2024-01-07T13:00:48;3.75;;;2.42;;
72517;SDS011;60540;51.178;6.738;2024-01-07T13:03:32;7.60;;;3.05;;
72517;SDS011;60540;51.178;6.738;2024-01-07T13:06:17;6.40;;;3.50;;
72517;SDS011;60540;51.178;6.738;2024-01-07T13:09:01;5.60;;;3.35;;
72517;SDS011;60540;51.178;6.738;2024-01-07T13:11:48;6.68;;;3.25;;
72517;SDS011;60540;51.178;6.738;2024-01-07T13:14:32;6.20;;;3.47;;
72517;SDS011;60540;51.178;6.738;2024-01-07T13:17:17;5.57;;;3.15;;
72517;SDS011;60540;51.178;6.738;2024-01-07T13:20:01;7.40;;;3.28;;
72517;SDS011;60540;51.178;6.738;2024-01-07T13:22:45;5.72;;;2.83;;
72517;SDS011;60540;51.178;6.738;2024-01-07T13:30:59;3.92;;;2.33;;
72517;SDS011;60540;51.178;6.738;2024-01-07T13:33:43;6.35;;;3.10;;
72517;SDS011;60540;51.178;6.738;2024-01-07T13:36:28;5.53;;;3.00;;
72517;SDS011;60540;51.178;6.738;2024-01-07T13:39:12;5.05;;;2.88;;
72517;SDS011;60540;51.178;6.738;2024-01-07T13:41:59;4.60;;;3.17;;
72517;SDS011;60540;51.178;6.738;2024-01-07T13:44:44;5.55;;;2.83;;
72517;SDS011;60540;51.178;6.738;2024-01-07T13:47:30;3.85;;;2.28;;
72517;SDS011;60540;51.178;6.738;2024-01-07T13:50:14;4.95;;;2.50;;
72517;SDS011;60540;51.178;6.738;2024-01-07T13:52:59;4.80;;;2.65;;
72517;SDS011;60540;51.178;6.738;2024-01-07T13:55:43;4.25;;;2.80;;
72517;SDS011;60540;51.178;6.738;2024-01-07T14:01:13;4.55;;;2.42;;
72517;SDS011;60540;51.178;6.738;2024-01-07T14:03:59;4.07;;;2.50;;
72517;SDS011;60540;51.178;6.738;2024-01-07T14:06:44;4.35;;;2.55;;
72517;SDS011;60540;51.178;6.738;2024-01-07T14:09:29;4.47;;;2.25;;
72517;SDS011;60540;51.178;6.738;2024-01-07T14:12:15;4.18;;;2.13;;
72517;SDS011;60540;51.178;6.738;2024-01-07T14:14:59;4.05;;;2.40;;
72517;SDS011;60540;51.178;6.738;2024-01-07T14:17:44;4.80;;;2.40;;
72517;SDS011;60540;51.178;6.738;2024-01-07T14:20:28;4.78;;;3.00;;
72517;SDS011;60540;51.178;6.738;2024-01-07T14:23:12;4.47;;;2.45;;
72517;SDS011;60540;51.178;6.738;2024-01-07T14:25:57;5.63;;;2.60;;
72517;SDS011;60540;51.178;6.738;2024-01-07T14:28:41;6.47;;;2.67;;
72517;SDS011;60540;51.178;6.738;2024-01-07T14:31:25;5.25;;;2.90;;
72517;SDS011;60540;51.178;6.738;2024-01-07T14:34:10;3.35;;;2.45;;
72517;SDS011;60540;51.178;6.738;2024-01-07T14:36:54;3.90;;;2.47;;
72517;SDS011;60540;51.178;6.738;2024-01-07T14:39:38;4.55;;;2.50;;
72517;SDS011;60540;51.178;6.738;2024-01-07T14:42:23;4.53;;;2.63;;
72517;SDS011;60540;51.178;6.738;2024-01-07T14:45:07;6.95;;;3.00;;
72517;SDS011;60540;51.178;6.738;2024-01-07T14:47:53;3.92;;;2.28;;
72517;SDS011;60540;51.178;6.738;2024-01-07T14:50:37;6.70;;;2.80;;
72517;SDS011;60540;51.178;6.738;2024-01-07T14:53:21;4.60;;;2.60;;
72517;SDS011;60540;51.178;6.738;2024-01-07T14:56:05;4.38;;;2.42;;
72517;SDS011;60540;51.178;6.738;2024-01-07T14:58:50;3.95;;;2.30;;
72517;SDS011;60540;51.178;6.738;2024-01-07T15:01:34;5.20;;;2.25;;
72517;SDS011;60540;51.178;6.738;2024-01-07T15:04:18;4.38;;;2.58;;
72517;SDS011;60540;51.178;6.738;2024-01-07T15:07:02;4.20;;;2.45;;
72517;SDS011;60540;51.178;6.738;2024-01-07T15:09:48;5.45;;;2.25;;
72517;SDS011;60540;51.178;6.738;2024-01-07T15:12:32;3.83;;;2.20;;
72517;SDS011;60540;51.178;6.738;2024-01-07T15:15:20;6.30;;;2.28;;
72517;SDS011;60540;51.178;6.738;2024-01-07T15:18:05;3.30;;;1.90;;
72517;SDS011;60540;51.178;6.738;2024-01-07T15:20:50;2.60;;;1.60;;
72517;SDS011;60540;51.178;6.738;2024-01-07T15:23:35;2.78;;;1.88;;
72517;SDS011;60540;51.178;6.738;2024-01-07T15:26:20;3.78;;;1.88;;
72517;SDS011;60540;51.178;6.738;2024-01-07T15:29:04;3.10;;;2.03;;
72517;SDS011;60540;51.178;6.738;2024-01-07T15:31:49;3.85;;;1.83;;
72517;SDS011;60540;51.178;6.738;2024-01-07T15:34:33;3.20;;;1.63;;
72517;SDS011;60540;51.178;6.738;2024-01-07T15:37:17;6.30;;;2.55;;
72517;SDS011;60540;51.178;6.738;2024-01-07T15:40:01;3.42;;;2.03;;
72517;SDS011;60540;51.178;6.738;2024-01-07T15:42:47;4.05;;;1.80;;
72517;SDS011;60540;51.178;6.738;2024-01-07T15:45:31;3.17;;;1.70;;
72517;SDS011;60540;51.178;6.738;2024-01-07T15:48:15;3.00;;;1.92;;
72517;SDS011;60540;51.178;6.738;2024-01-07T15:50:59;4.45;;;2.03;;
72517;SDS011;60540;51.178;6.738;2024-01-07T15:53:44;5.82;;;2.40;;
72517;SDS011;60540;51.178;6.738;2024-01-07T15:56:28;2.22;;;1.60;;
72517;SDS011;60540;51.178;6.738;2024-01-07T15:59:12;4.18;;;2.25;;
72517;SDS011;60540;51.178;6.738;2024-01-07T16:01:57;3.65;;;2.10;;
72517;SDS011;60540;51.178;6.738;2024-01-07T16:04:41;4.35;;;2.10;;
72517;SDS011;60540;51.178;6.738;2024-01-07T16:07:25;4.28;;;1.85;;
72517;SDS011;60540;51.178;6.738;2024-01-07T16:10:10;3.83;;;1.95;;
72517;SDS011;60540;51.178;6.738;2024-01-07T16:12:55;3.60;;;2.08;;
72517;SDS011;60540;51.178;6.738;2024-01-07T16:15:40;2.83;;;1.88;;
72517;SDS011;60540;51.178;6.738;2024-01-07T16:18:24;2.72;;;1.70;;
72517;SDS011;60540;51.178;6.738;2024-01-07T16:21:08;4.18;;;2.10;;
72517;SDS011;60540;51.178;6.738;2024-01-07T16:23:53;3.35;;;1.95;;
72517;SDS011;60540;51.178;6.738;2024-01-07T16:26:41;4.30;;;2.15;;
72517;SDS011;60540;51.178;6.738;2024-01-07T16:29:26;2.90;;;1.60;;
72517;SDS011;60540;51.178;6.738;2024-01-07T16:32:10;4.25;;;1.90;;
72517;SDS011;60540;51.178;6.738;2024-01-07T16:34:54;5.88;;;2.15;;
72517;SDS011;60540;51.178;6.738;2024-01-07T16:37:39;3.95;;;1.65;;
72517;SDS011;60540;51.178;6.738;2024-01-07T16:40:24;4.45;;;1.77;;
72517;SDS011;60540;51.178;6.738;2024-01-07T16:43:08;3.00;;;1.70;;
72517;SDS011;60540;51.178;6.738;2024-01-07T16:45:52;4.80;;;1.80;;
72517;SDS011;60540;51.178;6.738;2024-01-07T16:48:36;3.38;;;1.80;;
72517;SDS011;60540;51.178;6.738;2024-01-07T16:51:20;3.30;;;1.55;;
72517;SDS011;60540;51.178;6.738;2024-01-07T16:54:05;3.47;;;2.00;;
72517;SDS011;60540;51.178;6.738;2024-01-07T16:56:49;3.88;;;1.40;;